sensor_id;sensor_type;location;lat;lon;timestamp;P1;durP1;ratioP1;P2;durP2;ratioP2
64682;SDS011;51107;47.652;19.016;2023-05-29T00:01:52;1.30;;;0.90;;
64682;SDS011;51107;47.652;19.016;2023-05-29T00:04:21;2.35;;;0.98;;
64682;SDS011;51107;47.652;19.016;2023-05-29T00:06:49;1.73;;;0.77;;
64682;SDS011;51107;47.652;19.016;2023-05-29T00:09:18;4.72;;;1.23;;
64682;SDS011;51107;47.652;19.016;2023-05-29T00:11:47;1.37;;;0.95;;
64682;SDS011;51107;47.652;19.016;2023-05-29T00:14:19;0.73;;;0.70;;
64682;SDS011;51107;47.652;19.016;2023-05-29T00:16:47;1.58;;;1.15;;
64682;SDS011;51107;47.652;19.016;2023-05-29T00:19:17;2.50;;;1.17;;
64682;SDS011;51107;47.652;19.016;2023-05-29T00:21:45;2.05;;;1.02;;
64682;SDS011;51107;47.652;19.016;2023-05-29T00:24:16;1.95;;;1.33;;
64682;SDS011;51107;47.652;19.016;2023-05-29T00:26:44;1.77;;;1.35;;
64682;SDS011;51107;47.652;19.016;2023-05-29T00:29:13;4.28;;;1.65;;
64682;SDS011;51107;47.652;19.016;2023-05-29T00:31:43;2.28;;;1.27;;
64682;SDS011;51107;47.652;19.016;2023-05-29T00:34:11;3.87;;;1.25;;
64682;SDS011;51107;47.652;19.016;2023-05-29T00:36:39;1.65;;;1.15;;
64682;SDS011;51107;47.652;19.016;2023-05-29T00:39:08;1.77;;;1.05;;
64682;SDS011;51107;47.652;19.016;2023-05-29T00:41:37;1.52;;;1.00;;
64682;SDS011;51107;47.652;19.016;2023-05-29T00:44:05;1.35;;;1.00;;
64682;SDS011;51107;47.652;19.016;2023-05-29T00:46:34;2.62;;;1.23;;
64682;SDS011;51107;47.652;19.016;2023-05-29T00:49:02;1.15;;;1.05;;
64682;SDS011;51107;47.652;19.016;2023-05-29T00:51:33;2.70;;;0.98;;
64682;SDS011;51107;47.652;19.016;2023-05-29T00:54:01;2.05;;;1.12;;
64682;SDS011;51107;47.652;19.016;2023-05-29T00:56:30;4.53;;;1.45;;
64682;SDS011;51107;47.652;19.016;2023-05-29T00:58:59;1.05;;;0.88;;
64682;SDS011;51107;47.652;19.016;2023-05-29T01:01:28;0.70;;;0.55;;
64682;SDS011;51107;47.652;19.016;2023-05-29T01:03:59;3.03;;;1.20;;
64682;SDS011;51107;47.652;19.016;2023-05-29T01:06:28;2.87;;;1.15;;
64682;SDS011;51107;47.652;19.016;2023-05-29T01:08:57;1.90;;;1.08;;
64682;SDS011;51107;47.652;19.016;2023-05-29T01:17:07;0.98;;;0.88;;
64682;SDS011;51107;47.652;19.016;2023-05-29T01:20:16;3.72;;;1.08;;
64682;SDS011;51107;47.652;19.016;2023-05-29T01:22:58;1.37;;;0.95;;
64682;SDS011;51107;47.652;19.016;2023-05-29T01:28:26;0.60;;;0.60;;
64682;SDS011;51107;47.652;19.016;2023-05-29T01:30:59;2.22;;;1.02;;
64682;SDS011;51107;47.652;19.016;2023-05-29T01:33:30;1.45;;;0.90;;
64682;SDS011;51107;47.652;19.016;2023-05-29T01:35:59;2.83;;;0.98;;
64682;SDS011;51107;47.652;19.016;2023-05-29T01:38:27;1.12;;;0.70;;
64682;SDS011;51107;47.652;19.016;2023-05-29T01:40:55;3.15;;;1.15;;
64682;SDS011;51107;47.652;19.016;2023-05-29T01:43:23;2.65;;;1.10;;
64682;SDS011;51107;47.652;19.016;2023-05-29T01:45:52;1.45;;;1.25;;
64682;SDS011;51107;47.652;19.016;2023-05-29T01:48:21;1.83;;;1.15;;
64682;SDS011;51107;47.652;19.016;2023-05-29T01:50:50;1.50;;;0.88;;
64682;SDS011;51107;47.652;19.016;2023-05-29T01:53:19;1.33;;;0.90;;
64682;SDS011;51107;47.652;19.016;2023-05-29T01:55:48;1.48;;;0.80;;
64682;SDS011;51107;47.652;19.016;2023-05-29T01:58:17;1.67;;;1.23;;
64682;SDS011;51107;47.652;19.016;2023-05-29T02:00:47;1.37;;;0.95;;
64682;SDS011;51107;47.652;19.016;2023-05-29T02:03:17;2.12;;;1.55;;
64682;SDS011;51107;47.652;19.016;2023-05-29T02:05:45;1.45;;;0.93;;
64682;SDS011;51107;47.652;19.016;2023-05-29T02:08:13;5.78;;;1.30;;
64682;SDS011;51107;47.652;19.016;2023-05-29T02:10:41;2.42;;;1.37;;
64682;SDS011;51107;47.652;19.016;2023-05-29T02:13:10;3.15;;;0.70;;
64682;SDS011;51107;47.652;19.016;2023-05-29T02:15:38;5.25;;;1.37;;
64682;SDS011;51107;47.652;19.016;2023-05-29T02:18:10;1.98;;;0.68;;
64682;SDS011;51107;47.652;19.016;2023-05-29T02:20:41;2.58;;;0.98;;
64682;SDS011;51107;47.652;19.016;2023-05-29T02:23:09;2.72;;;1.30;;
64682;SDS011;51107;47.652;19.016;2023-05-29T02:25:38;1.45;;;0.90;;
64682;SDS011;51107;47.652;19.016;2023-05-29T02:28:08;1.58;;;1.10;;
64682;SDS011;51107;47.652;19.016;2023-05-29T02:30:36;1.75;;;1.05;;
64682;SDS011;51107;47.652;19.016;2023-05-29T02:33:04;2.78;;;1.15;;
64682;SDS011;51107;47.652;19.016;2023-05-29T02:35:34;1.85;;;1.23;;
64682;SDS011;51107;47.652;19.016;2023-05-29T02:38:04;3.80;;;1.30;;
64682;SDS011;51107;47.652;19.016;2023-05-29T02:40:32;2.78;;;1.30;;
64682;SDS011;51107;47.652;19.016;2023-05-29T02:43:01;3.47;;;1.17;;
64682;SDS011;51107;47.652;19.016;2023-05-29T02:45:31;2.12;;;1.30;;
64682;SDS011;51107;47.652;19.016;2023-05-29T02:48:00;1.92;;;0.93;;
64682;SDS011;51107;47.652;19.016;2023-05-29T02:50:28;1.00;;;0.95;;
64682;SDS011;51107;47.652;19.016;2023-05-29T02:52:56;2.30;;;1.30;;
64682;SDS011;51107;47.652;19.016;2023-05-29T02:55:25;0.80;;;0.80;;
64682;SDS011;51107;47.652;19.016;2023-05-29T02:57:53;1.27;;;0.93;;
64682;SDS011;51107;47.652;19.016;2023-05-29T03:00:23;2.08;;;1.02;;
64682;SDS011;51107;47.652;19.016;2023-05-29T03:02:51;1.17;;;1.05;;
64682;SDS011;51107;47.652;19.016;2023-05-29T03:05:19;3.87;;;1.17;;
64682;SDS011;51107;47.652;19.016;2023-05-29T03:07:48;1.50;;;1.30;;
64682;SDS011;51107;47.652;19.016;2023-05-29T03:10:16;4.15;;;1.40;;
64682;SDS011;51107;47.652;19.016;2023-05-29T03:12:46;2.10;;;1.23;;
64682;SDS011;51107;47.652;19.016;2023-05-29T03:15:14;1.62;;;0.88;;
64682;SDS011;51107;47.652;19.016;2023-05-29T03:17:43;0.98;;;0.80;;
64682;SDS011;51107;47.652;19.016;2023-05-29T03:20:11;1.40;;;1.00;;
64682;SDS011;51107;47.652;19.016;2023-05-29T03:22:41;2.05;;;1.17;;
64682;SDS011;51107;47.652;19.016;2023-05-29T03:25:09;1.85;;;1.33;;
64682;SDS011;51107;47.652;19.016;2023-05-29T03:27:38;2.17;;;1.73;;
64682;SDS011;51107;47.652;19.016;2023-05-29T03:30:07;3.90;;;1.27;;
64682;SDS011;51107;47.652;19.016;2023-05-29T03:32:38;1.58;;;1.08;;
64682;SDS011;51107;47.652;19.016;2023-05-29T03:35:06;1.60;;;0.85;;
64682;SDS011;51107;47.652;19.016;2023-05-29T03:37:37;2.45;;;1.42;;
64682;SDS011;51107;47.652;19.016;2023-05-29T03:40:06;1.27;;;0.95;;
64682;SDS011;51107;47.652;19.016;2023-05-29T03:42:35;2.20;;;1.10;;
64682;SDS011;51107;47.652;19.016;2023-05-29T03:45:04;2.00;;;0.93;;
64682;SDS011;51107;47.652;19.016;2023-05-29T03:47:32;2.47;;;1.30;;
64682;SDS011;51107;47.652;19.016;2023-05-29T03:50:01;1.42;;;1.00;;
64682;SDS011;51107;47.652;19.016;2023-05-29T03:52:30;4.60;;;1.05;;
64682;SDS011;51107;47.652;19.016;2023-05-29T03:54:59;2.65;;;1.30;;
64682;SDS011;51107;47.652;19.016;2023-05-29T03:57:27;1.37;;;0.70;;
64682;SDS011;51107;47.652;19.016;2023-05-29T03:59:56;2.08;;;1.25;;
64682;SDS011;51107;47.652;19.016;2023-05-29T04:02:24;4.30;;;1.17;;
64682;SDS011;51107;47.652;19.016;2023-05-29T04:04:53;2.50;;;1.10;;
64682;SDS011;51107;47.652;19.016;2023-05-29T04:07:23;2.40;;;1.50;;
64682;SDS011;51107;47.652;19.016;2023-05-29T04:09:51;2.37;;;1.40;;
64682;SDS011;51107;47.652;19.016;2023-05-29T04:12:20;1.50;;;1.10;;
64682;SDS011;51107;47.652;19.016;2023-05-29T04:14:48;1.62;;;1.10;;
64682;SDS011;51107;47.652;19.016;2023-05-29T04:17:16;1.08;;;0.90;;
64682;SDS011;51107;47.652;19.016;2023-05-29T04:19:45;1.85;;;1.35;;
64682;SDS011;51107;47.652;19.016;2023-05-29T04:22:13;2.17;;;1.50;;
64682;SDS011;51107;47.652;19.016;2023-05-29T04:24:42;2.95;;;1.20;;
64682;SDS011;51107;47.652;19.016;2023-05-29T04:27:10;2.80;;;1.17;;
64682;SDS011;51107;47.652;19.016;2023-05-29T04:29:42;2.12;;;1.30;;
64682;SDS011;51107;47.652;19.016;2023-05-29T04:32:10;2.25;;;1.20;;
64682;SDS011;51107;47.652;19.016;2023-05-29T04:34:39;1.30;;;0.80;;
64682;SDS011;51107;47.652;19.016;2023-05-29T04:37:08;2.70;;;1.20;;
64682;SDS011;51107;47.652;19.016;2023-05-29T04:39:37;2.62;;;1.20;;
64682;SDS011;51107;47.652;19.016;2023-05-29T04:42:05;2.50;;;1.45;;
64682;SDS011;51107;47.652;19.016;2023-05-29T04:44:35;2.22;;;1.17;;
64682;SDS011;51107;47.652;19.016;2023-05-29T04:47:04;0.98;;;0.82;;
64682;SDS011;51107;47.652;19.016;2023-05-29T04:49:34;1.70;;;1.23;;
64682;SDS011;51107;47.652;19.016;2023-05-29T04:52:05;1.65;;;1.20;;
64682;SDS011;51107;47.652;19.016;2023-05-29T04:54:33;2.05;;;1.40;;
64682;SDS011;51107;47.652;19.016;2023-05-29T04:57:03;1.73;;;0.93;;
64682;SDS011;51107;47.652;19.016;2023-05-29T04:59:33;1.30;;;1.20;;
64682;SDS011;51107;47.652;19.016;2023-05-29T05:02:03;4.78;;;0.95;;
64682;SDS011;51107;47.652;19.016;2023-05-29T05:04:31;2.35;;;1.33;;
64682;SDS011;51107;47.652;19.016;2023-05-29T05:07:01;1.85;;;1.27;;
64682;SDS011;51107;47.652;19.016;2023-05-29T05:09:29;1.98;;;1.33;;
64682;SDS011;51107;47.652;19.016;2023-05-29T05:11:58;2.30;;;1.37;;
64682;SDS011;51107;47.652;19.016;2023-05-29T05:14:27;2.85;;;1.40;;
64682;SDS011;51107;47.652;19.016;2023-05-29T05:16:57;3.05;;;1.62;;
64682;SDS011;51107;47.652;19.016;2023-05-29T05:19:25;2.70;;;1.48;;
64682;SDS011;51107;47.652;19.016;2023-05-29T05:21:54;4.15;;;1.83;;
64682;SDS011;51107;47.652;19.016;2023-05-29T05:24:23;4.30;;;1.20;;
64682;SDS011;51107;47.652;19.016;2023-05-29T05:26:51;1.58;;;1.08;;
64682;SDS011;51107;47.652;19.016;2023-05-29T05:29:20;3.87;;;1.50;;
64682;SDS011;51107;47.652;19.016;2023-05-29T05:31:48;1.50;;;1.12;;
64682;SDS011;51107;47.652;19.016;2023-05-29T05:34:17;1.58;;;1.17;;
64682;SDS011;51107;47.652;19.016;2023-05-29T05:36:46;4.43;;;1.12;;
64682;SDS011;51107;47.652;19.016;2023-05-29T05:39:14;1.30;;;1.10;;
64682;SDS011;51107;47.652;19.016;2023-05-29T05:41:44;2.85;;;1.05;;
64682;SDS011;51107;47.652;19.016;2023-05-29T05:44:13;1.80;;;1.37;;
64682;SDS011;51107;47.652;19.016;2023-05-29T05:46:42;2.50;;;1.42;;
64682;SDS011;51107;47.652;19.016;2023-05-29T05:49:10;2.30;;;1.40;;
64682;SDS011;51107;47.652;19.016;2023-05-29T05:51:40;3.08;;;1.55;;
64682;SDS011;51107;47.652;19.016;2023-05-29T05:54:08;2.03;;;1.50;;
64682;SDS011;51107;47.652;19.016;2023-05-29T05:56:37;2.37;;;1.42;;
64682;SDS011;51107;47.652;19.016;2023-05-29T05:59:07;2.42;;;1.77;;
64682;SDS011;51107;47.652;19.016;2023-05-29T06:01:35;3.20;;;2.00;;
64682;SDS011;51107;47.652;19.016;2023-05-29T06:04:05;6.72;;;1.92;;
64682;SDS011;51107;47.652;19.016;2023-05-29T06:06:34;1.87;;;1.33;;
64682;SDS011;51107;47.652;19.016;2023-05-29T06:09:02;2.35;;;1.50;;
64682;SDS011;51107;47.652;19.016;2023-05-29T06:11:32;3.87;;;1.27;;
64682;SDS011;51107;47.652;19.016;2023-05-29T06:14:02;4.28;;;2.00;;
64682;SDS011;51107;47.652;19.016;2023-05-29T06:16:30;2.03;;;1.55;;
64682;SDS011;51107;47.652;19.016;2023-05-29T06:18:58;3.67;;;1.60;;
64682;SDS011;51107;47.652;19.016;2023-05-29T06:21:27;10.13;;;1.50;;
64682;SDS011;51107;47.652;19.016;2023-05-29T06:23:55;4.45;;;1.48;;
64682;SDS011;51107;47.652;19.016;2023-05-29T06:26:24;1.10;;;1.00;;
64682;SDS011;51107;47.652;19.016;2023-05-29T06:28:53;2.92;;;1.58;;
64682;SDS011;51107;47.652;19.016;2023-05-29T06:31:22;2.15;;;1.52;;
64682;SDS011;51107;47.652;19.016;2023-05-29T06:33:51;1.85;;;1.20;;
64682;SDS011;51107;47.652;19.016;2023-05-29T06:36:19;3.70;;;1.65;;
64682;SDS011;51107;47.652;19.016;2023-05-29T06:38:47;2.35;;;1.33;;
64682;SDS011;51107;47.652;19.016;2023-05-29T06:41:16;2.37;;;1.40;;
64682;SDS011;51107;47.652;19.016;2023-05-29T06:43:45;3.72;;;1.15;;
64682;SDS011;51107;47.652;19.016;2023-05-29T06:46:13;0.95;;;0.88;;
64682;SDS011;51107;47.652;19.016;2023-05-29T06:48:43;2.97;;;1.73;;
64682;SDS011;51107;47.652;19.016;2023-05-29T06:51:11;1.90;;;1.50;;
64682;SDS011;51107;47.652;19.016;2023-05-29T06:53:47;2.40;;;1.35;;
64682;SDS011;51107;47.652;19.016;2023-05-29T06:56:16;3.33;;;1.70;;
64682;SDS011;51107;47.652;19.016;2023-05-29T06:58:44;2.33;;;1.45;;
64682;SDS011;51107;47.652;19.016;2023-05-29T07:01:14;2.10;;;1.30;;
64682;SDS011;51107;47.652;19.016;2023-05-29T07:03:46;2.15;;;1.60;;
64682;SDS011;51107;47.652;19.016;2023-05-29T07:06:14;2.92;;;1.40;;
64682;SDS011;51107;47.652;19.016;2023-05-29T07:08:43;2.42;;;1.77;;
64682;SDS011;51107;47.652;19.016;2023-05-29T07:11:12;0.93;;;0.88;;
64682;SDS011;51107;47.652;19.016;2023-05-29T07:13:41;1.58;;;1.10;;
64682;SDS011;51107;47.652;19.016;2023-05-29T07:16:09;4.90;;;1.60;;
64682;SDS011;51107;47.652;19.016;2023-05-29T07:18:52;4.62;;;1.70;;
64682;SDS011;51107;47.652;19.016;2023-05-29T07:21:20;13.62;;;1.90;;
64682;SDS011;51107;47.652;19.016;2023-05-29T07:23:49;1.85;;;1.25;;
64682;SDS011;51107;47.652;19.016;2023-05-29T07:26:19;1.73;;;1.30;;
64682;SDS011;51107;47.652;19.016;2023-05-29T07:28:49;1.62;;;1.23;;
64682;SDS011;51107;47.652;19.016;2023-05-29T07:31:21;2.62;;;1.40;;
64682;SDS011;51107;47.652;19.016;2023-05-29T07:33:50;6.75;;;1.50;;
64682;SDS011;51107;47.652;19.016;2023-05-29T07:36:18;1.33;;;1.20;;
64682;SDS011;51107;47.652;19.016;2023-05-29T07:38:47;1.60;;;1.35;;
64682;SDS011;51107;47.652;19.016;2023-05-29T07:41:15;1.60;;;1.20;;
64682;SDS011;51107;47.652;19.016;2023-05-29T07:43:48;3.15;;;1.80;;
64682;SDS011;51107;47.652;19.016;2023-05-29T07:46:20;2.33;;;1.33;;
64682;SDS011;51107;47.652;19.016;2023-05-29T07:48:49;2.97;;;1.50;;
64682;SDS011;51107;47.652;19.016;2023-05-29T07:51:18;2.47;;;1.50;;
64682;SDS011;51107;47.652;19.016;2023-05-29T07:53:47;1.40;;;1.17;;
64682;SDS011;51107;47.652;19.016;2023-05-29T07:56:16;1.92;;;1.30;;
64682;SDS011;51107;47.652;19.016;2023-05-29T07:58:44;3.12;;;1.20;;
64682;SDS011;51107;47.652;19.016;2023-05-29T08:01:14;1.55;;;1.20;;
64682;SDS011;51107;47.652;19.016;2023-05-29T08:03:43;4.03;;;1.20;;
64682;SDS011;51107;47.652;19.016;2023-05-29T08:06:12;2.55;;;1.30;;
64682;SDS011;51107;47.652;19.016;2023-05-29T08:08:40;4.15;;;1.35;;
64682;SDS011;51107;47.652;19.016;2023-05-29T08:11:10;2.03;;;1.50;;
64682;SDS011;51107;47.652;19.016;2023-05-29T08:13:39;2.00;;;1.52;;
64682;SDS011;51107;47.652;19.016;2023-05-29T08:16:08;1.67;;;1.42;;
64682;SDS011;51107;47.652;19.016;2023-05-29T08:18:37;3.00;;;1.40;;
64682;SDS011;51107;47.652;19.016;2023-05-29T08:21:05;1.58;;;1.25;;
64682;SDS011;51107;47.652;19.016;2023-05-29T08:23:34;1.40;;;1.30;;
64682;SDS011;51107;47.652;19.016;2023-05-29T08:26:03;9.02;;;1.75;;
64682;SDS011;51107;47.652;19.016;2023-05-29T08:28:32;2.92;;;1.67;;
64682;SDS011;51107;47.652;19.016;2023-05-29T08:31:00;3.72;;;1.42;;
64682;SDS011;51107;47.652;19.016;2023-05-29T08:33:28;1.87;;;1.23;;
64682;SDS011;51107;47.652;19.016;2023-05-29T08:35:58;2.37;;;1.50;;
64682;SDS011;51107;47.652;19.016;2023-05-29T08:38:26;2.03;;;1.42;;
64682;SDS011;51107;47.652;19.016;2023-05-29T08:40:56;2.92;;;1.58;;
64682;SDS011;51107;47.652;19.016;2023-05-29T08:43:28;3.30;;;1.20;;
64682;SDS011;51107;47.652;19.016;2023-05-29T08:45:59;2.05;;;1.50;;
64682;SDS011;51107;47.652;19.016;2023-05-29T08:48:30;2.25;;;1.60;;
64682;SDS011;51107;47.652;19.016;2023-05-29T08:50:59;2.12;;;1.33;;
64682;SDS011;51107;47.652;19.016;2023-05-29T08:53:31;3.03;;;1.45;;
64682;SDS011;51107;47.652;19.016;2023-05-29T08:56:00;1.55;;;1.17;;
64682;SDS011;51107;47.652;19.016;2023-05-29T08:58:30;3.60;;;1.60;;
64682;SDS011;51107;47.652;19.016;2023-05-29T09:00:59;4.43;;;1.48;;
64682;SDS011;51107;47.652;19.016;2023-05-29T09:03:27;2.37;;;1.60;;
64682;SDS011;51107;47.652;19.016;2023-05-29T09:05:59;5.97;;;1.92;;
64682;SDS011;51107;47.652;19.016;2023-05-29T09:08:29;3.10;;;1.60;;
64682;SDS011;51107;47.652;19.016;2023-05-29T09:10:58;1.55;;;1.30;;
64682;SDS011;51107;47.652;19.016;2023-05-29T09:13:26;2.00;;;1.33;;
64682;SDS011;51107;47.652;19.016;2023-05-29T09:15:59;2.95;;;1.60;;
64682;SDS011;51107;47.652;19.016;2023-05-29T09:18:29;1.90;;;1.40;;
64682;SDS011;51107;47.652;19.016;2023-05-29T09:20:59;4.32;;;1.37;;
64682;SDS011;51107;47.652;19.016;2023-05-29T09:23:29;1.87;;;1.60;;
64682;SDS011;51107;47.652;19.016;2023-05-29T09:25:58;2.87;;;1.90;;
64682;SDS011;51107;47.652;19.016;2023-05-29T09:28:30;2.92;;;1.65;;
64682;SDS011;51107;47.652;19.016;2023-05-29T09:30:59;2.30;;;1.50;;
64682;SDS011;51107;47.652;19.016;2023-05-29T09:33:28;2.62;;;1.70;;
64682;SDS011;51107;47.652;19.016;2023-05-29T09:35:58;2.20;;;1.58;;
64682;SDS011;51107;47.652;19.016;2023-05-29T09:38:27;2.47;;;1.73;;
64682;SDS011;51107;47.652;19.016;2023-05-29T09:41:21;5.75;;;2.08;;
64682;SDS011;51107;47.652;19.016;2023-05-29T09:43:50;6.72;;;1.85;;
64682;SDS011;51107;47.652;19.016;2023-05-29T09:46:18;4.37;;;1.52;;
64682;SDS011;51107;47.652;19.016;2023-05-29T09:48:48;2.53;;;1.75;;
64682;SDS011;51107;47.652;19.016;2023-05-29T09:51:20;1.95;;;1.58;;
64682;SDS011;51107;47.652;19.016;2023-05-29T09:53:54;4.60;;;1.77;;
64682;SDS011;51107;47.652;19.016;2023-05-29T09:56:24;2.03;;;1.60;;
64682;SDS011;51107;47.652;19.016;2023-05-29T09:58:53;2.72;;;1.77;;
64682;SDS011;51107;47.652;19.016;2023-05-29T10:01:24;2.03;;;1.48;;
64682;SDS011;51107;47.652;19.016;2023-05-29T10:03:55;2.30;;;1.73;;
64682;SDS011;51107;47.652;19.016;2023-05-29T10:06:23;2.35;;;1.65;;
64682;SDS011;51107;47.652;19.016;2023-05-29T10:08:52;3.85;;;1.48;;
64682;SDS011;51107;47.652;19.016;2023-05-29T10:11:24;2.15;;;1.30;;
64682;SDS011;51107;47.652;19.016;2023-05-29T10:13:56;1.75;;;1.30;;
64682;SDS011;51107;47.652;19.016;2023-05-29T10:16:25;1.60;;;1.20;;
64682;SDS011;51107;47.652;19.016;2023-05-29T10:18:55;1.77;;;1.45;;
64682;SDS011;51107;47.652;19.016;2023-05-29T10:21:26;1.75;;;1.50;;
64682;SDS011;51107;47.652;19.016;2023-05-29T10:23:56;2.40;;;1.58;;
64682;SDS011;51107;47.652;19.016;2023-05-29T10:26:25;2.17;;;1.65;;
64682;SDS011;51107;47.652;19.016;2023-05-29T10:28:56;2.33;;;1.65;;
64682;SDS011;51107;47.652;19.016;2023-05-29T10:31:33;2.20;;;1.75;;
64682;SDS011;51107;47.652;19.016;2023-05-29T10:37:01;2.60;;;1.75;;
64682;SDS011;51107;47.652;19.016;2023-05-29T10:39:48;1.98;;;1.70;;
64682;SDS011;51107;47.652;19.016;2023-05-29T10:45:06;2.78;;;1.62;;
64682;SDS011;51107;47.652;19.016;2023-05-29T10:47:36;5.10;;;1.80;;
64682;SDS011;51107;47.652;19.016;2023-05-29T10:50:04;2.85;;;1.70;;
64682;SDS011;51107;47.652;19.016;2023-05-29T10:52:33;2.10;;;1.37;;
64682;SDS011;51107;47.652;19.016;2023-05-29T10:55:02;5.43;;;1.70;;
64682;SDS011;51107;47.652;19.016;2023-05-29T10:57:33;3.12;;;1.65;;
64682;SDS011;51107;47.652;19.016;2023-05-29T11:00:05;2.17;;;1.55;;
64682;SDS011;51107;47.652;19.016;2023-05-29T11:02:38;5.55;;;2.40;;
64682;SDS011;51107;47.652;19.016;2023-05-29T11:05:18;2.50;;;1.65;;
64682;SDS011;51107;47.652;19.016;2023-05-29T11:07:57;3.28;;;1.83;;
64682;SDS011;51107;47.652;19.016;2023-05-29T11:13:11;4.53;;;1.62;;
64682;SDS011;51107;47.652;19.016;2023-05-29T11:16:36;1.70;;;1.40;;
64682;SDS011;51107;47.652;19.016;2023-05-29T11:18:47;5.32;;;1.92;;
64682;SDS011;51107;47.652;19.016;2023-05-29T11:24:07;2.08;;;1.42;;
64682;SDS011;51107;47.652;19.016;2023-05-29T11:26:36;1.60;;;1.45;;
64682;SDS011;51107;47.652;19.016;2023-05-29T11:29:05;1.35;;;1.15;;
64682;SDS011;51107;47.652;19.016;2023-05-29T11:31:39;3.78;;;1.90;;
64682;SDS011;51107;47.652;19.016;2023-05-29T11:34:09;2.33;;;1.50;;
64682;SDS011;51107;47.652;19.016;2023-05-29T11:36:42;2.95;;;1.62;;
64682;SDS011;51107;47.652;19.016;2023-05-29T11:39:11;5.32;;;1.65;;
64682;SDS011;51107;47.652;19.016;2023-05-29T11:41:39;2.30;;;1.65;;
64682;SDS011;51107;47.652;19.016;2023-05-29T11:44:08;2.05;;;1.30;;
64682;SDS011;51107;47.652;19.016;2023-05-29T11:46:41;2.15;;;1.65;;
64682;SDS011;51107;47.652;19.016;2023-05-29T11:49:09;3.62;;;1.67;;
64682;SDS011;51107;47.652;19.016;2023-05-29T11:51:41;2.87;;;1.83;;
64682;SDS011;51107;47.652;19.016;2023-05-29T11:54:11;2.55;;;1.70;;
64682;SDS011;51107;47.652;19.016;2023-05-29T11:56:39;2.50;;;1.60;;
64682;SDS011;51107;47.652;19.016;2023-05-29T11:59:10;8.32;;;1.80;;
64682;SDS011;51107;47.652;19.016;2023-05-29T12:01:39;2.50;;;1.87;;
64682;SDS011;51107;47.652;19.016;2023-05-29T12:04:15;1.98;;;1.50;;
64682;SDS011;51107;47.652;19.016;2023-05-29T12:06:43;4.65;;;2.10;;
64682;SDS011;51107;47.652;19.016;2023-05-29T12:09:28;3.33;;;1.48;;
64682;SDS011;51107;47.652;19.016;2023-05-29T12:12:03;2.45;;;1.67;;
64682;SDS011;51107;47.652;19.016;2023-05-29T12:14:32;2.35;;;1.70;;
64682;SDS011;51107;47.652;19.016;2023-05-29T12:17:01;4.65;;;1.80;;
64682;SDS011;51107;47.652;19.016;2023-05-29T12:19:29;2.40;;;1.90;;
64682;SDS011;51107;47.652;19.016;2023-05-29T12:21:57;2.47;;;1.77;;
64682;SDS011;51107;47.652;19.016;2023-05-29T12:24:26;4.18;;;1.75;;
64682;SDS011;51107;47.652;19.016;2023-05-29T12:26:58;3.95;;;1.83;;
64682;SDS011;51107;47.652;19.016;2023-05-29T12:29:32;1.98;;;1.48;;
64682;SDS011;51107;47.652;19.016;2023-05-29T12:32:01;2.80;;;1.80;;
64682;SDS011;51107;47.652;19.016;2023-05-29T12:34:33;2.50;;;1.87;;
64682;SDS011;51107;47.652;19.016;2023-05-29T12:37:08;3.03;;;1.80;;
64682;SDS011;51107;47.652;19.016;2023-05-29T12:39:40;3.75;;;1.77;;
64682;SDS011;51107;47.652;19.016;2023-05-29T12:42:09;1.98;;;1.30;;
64682;SDS011;51107;47.652;19.016;2023-05-29T12:44:39;3.85;;;1.77;;
64682;SDS011;51107;47.652;19.016;2023-05-29T12:47:13;2.33;;;1.60;;
64682;SDS011;51107;47.652;19.016;2023-05-29T12:49:41;3.17;;;1.90;;
64682;SDS011;51107;47.652;19.016;2023-05-29T12:52:10;2.58;;;1.98;;
64682;SDS011;51107;47.652;19.016;2023-05-29T12:54:39;2.67;;;1.50;;
64682;SDS011;51107;47.652;19.016;2023-05-29T12:57:07;3.05;;;1.98;;
64682;SDS011;51107;47.652;19.016;2023-05-29T12:59:36;2.62;;;1.85;;
64682;SDS011;51107;47.652;19.016;2023-05-29T13:02:04;2.92;;;1.77;;
64682;SDS011;51107;47.652;19.016;2023-05-29T13:04:36;2.15;;;1.65;;
64682;SDS011;51107;47.652;19.016;2023-05-29T13:07:04;2.37;;;1.48;;
64682;SDS011;51107;47.652;19.016;2023-05-29T13:09:32;3.05;;;1.60;;
64682;SDS011;51107;47.652;19.016;2023-05-29T13:12:01;2.72;;;2.10;;
64682;SDS011;51107;47.652;19.016;2023-05-29T13:14:30;3.53;;;1.50;;
64682;SDS011;51107;47.652;19.016;2023-05-29T13:16:58;3.92;;;1.50;;
64682;SDS011;51107;47.652;19.016;2023-05-29T13:19:27;3.78;;;1.62;;
64682;SDS011;51107;47.652;19.016;2023-05-29T13:21:55;3.92;;;1.95;;
64682;SDS011;51107;47.652;19.016;2023-05-29T13:24:23;2.55;;;1.80;;
64682;SDS011;51107;47.652;19.016;2023-05-29T13:26:52;3.00;;;1.85;;
64682;SDS011;51107;47.652;19.016;2023-05-29T13:29:20;2.03;;;1.60;;
64682;SDS011;51107;47.652;19.016;2023-05-29T13:31:49;3.22;;;1.73;;
64682;SDS011;51107;47.652;19.016;2023-05-29T13:34:18;2.92;;;2.00;;
64682;SDS011;51107;47.652;19.016;2023-05-29T13:36:46;3.35;;;1.80;;
64682;SDS011;51107;47.652;19.016;2023-05-29T13:39:14;4.20;;;1.92;;
64682;SDS011;51107;47.652;19.016;2023-05-29T13:41:42;3.12;;;1.85;;
64682;SDS011;51107;47.652;19.016;2023-05-29T13:44:11;2.90;;;1.95;;
64682;SDS011;51107;47.652;19.016;2023-05-29T13:46:39;3.00;;;1.75;;
64682;SDS011;51107;47.652;19.016;2023-05-29T13:49:07;2.42;;;1.90;;
64682;SDS011;51107;47.652;19.016;2023-05-29T13:51:36;3.95;;;1.92;;
64682;SDS011;51107;47.652;19.016;2023-05-29T13:54:04;3.00;;;1.80;;
64682;SDS011;51107;47.652;19.016;2023-05-29T13:56:32;3.40;;;1.90;;
64682;SDS011;51107;47.652;19.016;2023-05-29T13:59:01;2.92;;;1.45;;
64682;SDS011;51107;47.652;19.016;2023-05-29T14:01:33;2.33;;;1.62;;
64682;SDS011;51107;47.652;19.016;2023-05-29T14:04:02;3.35;;;1.70;;
64682;SDS011;51107;47.652;19.016;2023-05-29T14:06:31;2.00;;;1.77;;
64682;SDS011;51107;47.652;19.016;2023-05-29T14:09:00;5.28;;;1.95;;
64682;SDS011;51107;47.652;19.016;2023-05-29T14:11:29;2.37;;;2.12;;
64682;SDS011;51107;47.652;19.016;2023-05-29T14:13:57;3.70;;;1.95;;
64682;SDS011;51107;47.652;19.016;2023-05-29T14:16:25;2.28;;;1.73;;
64682;SDS011;51107;47.652;19.016;2023-05-29T14:18:54;1.98;;;1.77;;
64682;SDS011;51107;47.652;19.016;2023-05-29T14:21:23;2.45;;;1.50;;
64682;SDS011;51107;47.652;19.016;2023-05-29T14:23:51;2.37;;;1.52;;
64682;SDS011;51107;47.652;19.016;2023-05-29T14:26:19;4.00;;;1.80;;
64682;SDS011;51107;47.652;19.016;2023-05-29T14:28:47;2.92;;;1.50;;
64682;SDS011;51107;47.652;19.016;2023-05-29T14:31:19;3.40;;;1.67;;
64682;SDS011;51107;47.652;19.016;2023-05-29T14:33:48;1.83;;;1.25;;
64682;SDS011;51107;47.652;19.016;2023-05-29T14:36:16;3.15;;;1.70;;
64682;SDS011;51107;47.652;19.016;2023-05-29T14:38:45;1.83;;;1.40;;
64682;SDS011;51107;47.652;19.016;2023-05-29T14:41:15;3.72;;;1.50;;
64682;SDS011;51107;47.652;19.016;2023-05-29T14:43:44;3.45;;;2.10;;
64682;SDS011;51107;47.652;19.016;2023-05-29T14:46:12;1.83;;;1.45;;
64682;SDS011;51107;47.652;19.016;2023-05-29T14:48:41;2.87;;;1.92;;
64682;SDS011;51107;47.652;19.016;2023-05-29T14:51:10;5.20;;;1.70;;
64682;SDS011;51107;47.652;19.016;2023-05-29T14:53:39;6.70;;;1.92;;
64682;SDS011;51107;47.652;19.016;2023-05-29T14:56:08;3.33;;;1.70;;
64682;SDS011;51107;47.652;19.016;2023-05-29T14:58:36;5.30;;;2.40;;
64682;SDS011;51107;47.652;19.016;2023-05-29T15:01:04;7.80;;;2.67;;
64682;SDS011;51107;47.652;19.016;2023-05-29T15:03:33;3.47;;;1.90;;
64682;SDS011;51107;47.652;19.016;2023-05-29T15:06:03;2.85;;;1.83;;
64682;SDS011;51107;47.652;19.016;2023-05-29T15:08:32;3.78;;;1.50;;